メインページ
METAR-TAF:

METAR-TAF

空港 :

ベリーズシティ, ベリーズ

フィリップス・S・W・ゴールドソン国際空港

緯度: 17-32N, 経度: 088-18W, 海抜: 5m

現時点の気象観測

当レポートは17分前の23:00(UTC)に作成
の風 9kt
気温 28°C
湿度 89%
気圧 1011 hPa
視程10km以上
高度2000ftの千切れ雲あり

METAR: MZBZ 272300Z 10009KT 9999 BKN020 28/26 A2988 Q1011 RESHRA NOSIG

時間: 17:17 (23:17 UTC)

予報

当レポートは4時間27分前の18:50(UTC)に作成
予報は27日の 18時(UTC)から 28日の 18時(UTC)まで有効
の風 10kt
視程10km以上
高度2400ftの雲は散在している
確率 30% :
27日の 18時(UTC)から 28日の 03時(UTC)まで一時的に
視程: 5000m
高度1500ftの千切れ雲あり
にわか雨
確率 30% :
28日の 09時(UTC)から 28日の 12時(UTC)まで一時的に
視程: 5000m
高度1500ftの千切れ雲あり
にわか雨

TAF: MZBZ 271850Z 2718/2818 10010KT 9999 SCT024 PROB30 TEMPO 2718/2803 5000 SHRA BKN015 PROB30 TEMPO 2809/2812 5000 SHRA BKN015

4,000以上の空港の気象観測と天気予報(METAR報とTAF報)

利用可能な観測所は地図上に黄色い丸と赤い丸で示す。

丸の上にカーソルを重ねると観測所名を参照できる。

次にクリックすると気象観測と天気予報を参照できる。

マップの切り替え:黒色「×」印の緑ボタンをクリックして拡大、「-」印の緑ボタンをクリックして縮小、緑色の三角印をクリックして隣りの地図に切り替え


METAR-TAF: